KBNA/BNA METAR and TAF weather

Enter ICAO airport designator
Station Type Date Time Source
KBNA METAR 2022/06/25 21:53 UTC NOAA

KBNA 252153Z 15005KT 10SM FEW065TCU SCT100 SCT250 34/19 A3000 RMK AO2 SLP151 TCU ALQDS T03390189


Station Type Date Time Source
KBNA Decoded METAR 2022/06/25 21:53 UTC NOAA

NASHVILLE INTERNATIONAL AIRPORT, TN, United States (KBNA) 36-07N 086-41W 210M
Jun 25, 2022 - 05:53 PM EDT / 2022.06.25 2153 UTC
Wind: from the SSE (150 degrees) at 6 MPH (5 KT):0
Visibility: 10 mile(s):0
Sky conditions: partly cloudy
Weather: Towering cumulus clouds observed
Temperature: 93.0 F (33.9 C)
Heat index: 95.9 F (35.5 C):1
Dew Point: 66.0 F (18.9 C)
Relative Humidity: 41%
Pressure (altimeter): 30 in. Hg (1015 hPa)
ob: KBNA 252153Z 15005KT 10SM FEW065TCU SCT100 SCT250 34/19 A3000 RMK AO2 SLP151 TCU ALQDS T03390189
cycle: 22

Station Type Date Time Source
KBNA TAF 2022/06/25 18:42 UTC NOAA

TAF KBNA 251740Z 2518/2618 16007KT P6SM SCT045 BKN060
FM260000 13004KT P6SM OVC250

Example: see airport list